Terminal Aerodrome Forecast
Issued by NWS

Home | Current Version | Previous Version | Text Only | Print | Product List | Glossary On
Versions: 1 2 3 4 5 6 7 8 9 10 11 12 13 14 15 16 17 18 19 20 21 22 23 24
000
FTUS45 KREV 181140
TAFTVL
TAF
KTVL 181140Z 1812/1912 19013G20KT P6SM SCT040 BKN110
     FM181800 20020G35KT P6SM BKN040 OVC100 WS020/22040KT
     FM190000 20020G32KT P6SM VCSH SCT020 BKN040 WS020/23040KT
     FM190300 19018G30KT 5SM RA SCT010 OVC030
     FM190600 19014G25KT 1SM -SN OVC010=

USA.gov is the U.S. government's official web portal to all federal, state and local government web resources and services.